Time;durP1;ratioP1;P1;durP2;ratioP2;P2;SDS_P1;SDS_P2;PMS_P1;PMS_P2;Temp;Humidity;BMP_temperature;BMP_pressure;BME280_temperature;BME280_humidity;BME280_pressure;Samples;Min_cycle;Max_cycle;Signal;HPM_P1;HPM_P2
2023/07/20 00:07:57;;;;;;;2.70;1.07;;;;;;;22.33;100.00;98622.09;4989604;28;20231;-58
2023/07/20 00:10:23;;;;;;;2.07;1.20;;;;;;;22.20;100.00;98462.47;4989089;28;20219;-58
2023/07/20 00:12:50;;;;;;;1.63;1.27;;;;;;;21.83;100.00;98387.31;4989143;28;20556;-59
2023/07/20 00:15:17;;;;;;;2.20;1.10;;;;;;;21.54;100.00;98382.50;4989047;28;20201;-58
2023/07/20 00:17:45;;;;;;;1.93;1.10;;;;;;;21.65;100.00;98428.75;4989010;28;20206;-59
2023/07/20 00:20:12;;;;;;;3.50;1.40;;;;;;;21.73;100.00;98477.19;4988916;28;20235;-59
2023/07/20 00:22:39;;;;;;;1.30;1.20;;;;;;;21.55;100.00;98553.19;4989124;28;20216;-58
2023/07/20 00:25:08;;;;;;;1.30;1.20;;;;;;;21.58;100.00;98576.22;4989191;28;20222;-59
2023/07/20 00:27:35;;;;;;;3.33;1.10;;;;;;;21.49;100.00;98583.38;4988855;28;20696;-58
2023/07/20 00:30:02;;;;;;;2.47;1.50;;;;;;;21.38;100.00;98604.72;4988657;28;20213;-58
2023/07/20 00:32:29;;;;;;;3.13;1.30;;;;;;;21.32;100.00;98593.28;4988768;28;20229;-58
2023/07/20 00:34:56;;;;;;;1.57;1.37;;;;;;;21.35;100.00;98577.31;4988634;28;20209;-58
2023/07/20 00:37:23;;;;;;;2.37;1.43;;;;;;;21.34;100.00;98565.28;4988567;28;20212;-58
2023/07/20 00:39:49;;;;;;;4.90;1.97;;;;;;;21.22;100.00;98559.00;4988146;28;20676;-58
2023/07/20 00:42:18;;;;;;;4.17;1.90;;;;;;;21.02;100.00;98570.09;4988484;28;20206;-58
2023/07/20 00:44:45;;;;;;;2.80;1.90;;;;;;;20.78;100.00;98580.94;4988618;28;20206;-58
2023/07/20 00:47:12;;;;;;;2.30;1.73;;;;;;;20.54;100.00;98575.16;4988281;28;20228;-58
2023/07/20 00:49:39;;;;;;;3.83;1.90;;;;;;;20.47;100.00;98571.66;4988646;28;20236;-58
2023/07/20 00:52:08;;;;;;;3.70;2.07;;;;;;;20.50;100.00;98568.69;4988137;28;20740;-58
2023/07/20 00:54:36;;;;;;;4.27;2.00;;;;;;;20.47;100.00;98558.69;4988523;28;20268;-57
2023/07/20 00:57:03;;;;;;;6.57;2.33;;;;;;;20.43;100.00;98562.66;4988514;28;20206;-58
2023/07/20 00:59:35;;;;;;;3.20;2.00;;;;;;;20.47;100.00;98558.69;4988427;28;20236;-57
2023/07/20 01:02:02;;;;;;;4.17;2.07;;;;;;;20.50;100.00;98562.69;4988270;28;20634;-58
2023/07/20 01:04:29;;;;;;;3.00;1.70;;;;;;;20.48;100.00;98560.31;4988114;28;20204;-58
2023/07/20 01:07:02;;;;;;;2.80;1.90;;;;;;;20.50;100.00;98563.50;4988280;28;20606;-58
2023/07/20 01:09:35;;;;;;;3.43;1.67;;;;;;;20.53;100.00;98567.53;4988230;28;20303;-57
2023/07/20 01:12:13;;;;;;;11.87;2.07;;;;;;;20.58;100.00;98573.78;4988159;28;20209;-58
2023/07/20 01:14:42;;;;;;;4.10;1.73;;;;;;;20.73;100.00;98580.69;4988362;28;20208;-58
2023/07/20 01:17:09;;;;;;;6.37;1.90;;;;;;;20.78;100.00;98586.13;4988328;28;20219;-58
2023/07/20 01:19:36;;;;;;;2.73;1.93;;;;;;;20.79;100.00;98588.53;4987976;28;20718;-58
2023/07/20 01:22:11;;;;;;;2.90;1.80;;;;;;;20.75;100.00;98591.72;4988068;28;20197;-58
2023/07/20 01:25:05;;;;;;;2.83;1.93;;;;;;;20.70;100.00;98601.84;4988010;28;20202;-57
2023/07/20 01:28:05;;;;;;;3.30;1.63;;;;;;;20.67;100.00;98584.84;4988420;28;20684;-58
2023/07/20 01:30:56;;;;;;;4.27;1.87;;;;;;;20.60;100.00;98585.81;4987868;28;20208;-58
2023/07/20 01:33:26;;;;;;;3.73;1.60;;;;;;;20.62;100.00;98578.59;4987965;28;20554;-58
2023/07/20 01:35:57;;;;;;;3.00;1.60;;;;;;;20.51;100.00;98591.09;4987961;28;20201;-58
2023/07/20 01:38:25;;;;;;;4.03;1.80;;;;;;;20.56;100.00;98596.53;4987944;28;20211;-57
2023/07/20 01:40:53;;;;;;;2.17;1.70;;;;;;;20.54;100.00;98585.56;4987933;28;20247;-58
2023/07/20 01:43:20;;;;;;;4.70;2.00;;;;;;;20.50;100.00;98579.06;4987948;28;20200;-58
2023/07/20 01:45:46;;;;;;;3.80;1.57;;;;;;;20.50;100.00;98579.06;4988013;28;20208;-57
2023/07/20 01:48:13;;;;;;;6.50;2.10;;;;;;;20.57;100.00;98579.19;4987700;28;20213;-57
2023/07/20 01:50:41;;;;;;;2.70;1.70;;;;;;;20.60;100.00;98563.22;4990511;28;20691;-58
2023/07/20 01:53:08;;;;;;;3.37;1.80;;;;;;;20.50;100.00;98563.50;4992031;28;20216;-58
2023/07/20 01:55:35;;;;;;;2.03;1.70;;;;;;;20.52;100.00;98560.72;4991568;28;20208;-58
2023/07/20 01:58:03;;;;;;;2.50;1.77;;;;;;;20.63;100.00;98556.84;4991316;28;20599;-58
2023/07/20 02:00:30;;;;;;;4.57;1.70;;;;;;;20.74;100.00;98545.91;4991482;28;20240;-58
2023/07/20 02:02:57;;;;;;;2.67;1.50;;;;;;;20.81;100.00;98533.78;4991312;28;20707;-57
2023/07/20 02:05:24;;;;;;;2.37;1.63;;;;;;;20.84;100.00;98532.59;4991552;28;20204;-57
2023/07/20 02:07:52;;;;;;;3.50;1.60;;;;;;;20.89;100.00;98532.84;4991325;28;20781;-58
2023/07/20 02:10:19;;;;;;;6.03;1.53;;;;;;;20.85;100.00;98529.81;4991618;28;20209;-57
2023/07/20 02:12:46;;;;;;;2.43;1.37;;;;;;;20.91;100.00;98525.66;4991597;28;20209;-58
2023/07/20 02:15:14;;;;;;;1.93;1.50;;;;;;;20.97;100.00;98523.09;4991340;28;20206;-58
2023/07/20 02:17:41;;;;;;;3.63;1.57;;;;;;;21.06;100.00;98525.53;4991170;28;20234;-57
2023/07/20 02:20:10;;;;;;;4.60;1.70;;;;;;;21.01;100.00;98534.72;4990259;28;20728;-57
2023/07/20 02:22:37;;;;;;;2.97;1.63;;;;;;;21.02;100.00;98536.31;4990033;28;20203;-58
2023/07/20 02:25:07;;;;;;;1.87;1.30;;;;;;;21.00;100.00;98543.50;4990408;28;20209;-58
2023/07/20 02:27:34;;;;;;;4.27;1.30;;;;;;;20.96;100.00;98547.47;4990861;28;20207;-57
2023/07/20 02:30:01;;;;;;;3.40;1.63;;;;;;;20.92;100.00;98546.25;4990863;28;20232;-58
2023/07/20 02:32:28;;;;;;;2.67;1.30;;;;;;;20.85;100.00;98555.78;4990779;28;20207;-58
2023/07/20 02:34:55;;;;;;;3.10;1.40;;;;;;;20.84;100.00;98549.00;4990996;28;20216;-58
2023/07/20 02:37:22;;;;;;;5.87;1.40;;;;;;;20.80;100.00;98548.56;4991195;28;20199;-58
2023/07/20 02:39:49;;;;;;;2.43;1.43;;;;;;;20.76;100.00;98546.53;4990860;28;20244;-58
2023/07/20 02:42:19;;;;;;;3.57;1.53;;;;;;;20.68;100.00;98549.28;4990956;28;20723;-58
2023/07/20 02:44:46;;;;;;;5.67;1.37;;;;;;;20.72;100.00;98553.13;4991104;28;20405;-58
2023/07/20 02:47:13;;;;;;;3.27;1.60;;;;;;;20.64;100.00;98545.47;4990604;28;20629;-58
2023/07/20 02:49:40;;;;;;;2.53;1.70;;;;;;;20.60;100.00;98550.22;4990536;28;20207;-57
2023/07/20 02:52:07;;;;;;;3.90;2.07;;;;;;;20.52;100.00;98551.16;4990596;28;20206;-58
2023/07/20 02:54:34;;;;;;;2.10;1.50;;;;;;;20.52;100.00;98566.75;4990436;28;20218;-58
2023/07/20 02:57:01;;;;;;;3.47;1.53;;;;;;;20.55;100.00;98558.56;4990649;28;20590;-58
2023/07/20 02:59:29;;;;;;;4.13;1.70;;;;;;;20.60;100.00;98575.41;4990314;28;20232;-57
2023/07/20 03:01:57;;;;;;;2.20;1.47;;;;;;;20.57;100.00;98564.41;4989344;28;20208;-58
2023/07/20 03:04:24;;;;;;;3.03;1.40;;;;;;;20.51;100.00;98565.13;4990261;28;20209;-58
2023/07/20 03:06:51;;;;;;;3.00;1.60;;;;;;;20.59;100.00;98571.97;4990468;28;20478;-57
2023/07/20 03:09:18;;;;;;;4.90;1.60;;;;;;;20.57;100.00;98566.19;4990480;28;20603;-58
2023/07/20 03:11:45;;;;;;;5.53;1.57;;;;;;;20.61;100.00;98574.41;4990193;28;20254;-58
2023/07/20 03:14:12;;;;;;;6.93;1.80;;;;;;;20.52;100.00;98561.56;4990039;28;20205;-58
2023/07/20 03:16:40;;;;;;;2.33;1.67;;;;;;;20.59;100.00;98548.59;4989942;28;20215;-58
2023/07/20 03:19:07;;;;;;;2.57;1.90;;;;;;;20.53;100.00;98552.75;4989906;28;20596;-58
2023/07/20 03:21:34;;;;;;;3.97;1.60;;;;;;;20.56;100.00;98552.38;4990000;28;20758;-58
2023/07/20 03:24:01;;;;;;;2.67;1.67;;;;;;;20.56;100.00;98542.00;4990107;28;20204;-58
2023/07/20 03:26:28;;;;;;;3.30;1.70;;;;;;;20.54;100.00;98543.19;4990276;28;20200;-58
2023/07/20 03:28:55;;;;;;;2.27;1.73;;;;;;;20.52;100.00;98540.78;4989876;28;20755;-58
2023/07/20 03:31:21;;;;;;;3.57;1.50;;;;;;;20.54;100.00;98546.59;4990346;28;20206;-58
2023/07/20 03:33:50;;;;;;;2.23;1.53;;;;;;;20.66;100.00;98525.31;4989870;28;20289;-58
2023/07/20 03:36:16;;;;;;;3.10;1.90;;;;;;;20.73;100.00;98519.13;4989812;28;20221;-58
2023/07/20 03:38:43;;;;;;;3.83;1.70;;;;;;;20.71;100.00;98504.72;4989803;28;20216;-58
2023/07/20 03:41:11;;;;;;;2.47;1.53;;;;;;;20.80;100.00;98506.22;4989560;28;20237;-58
2023/07/20 03:43:38;;;;;;;2.03;1.57;;;;;;;20.86;100.00;98508.03;4989573;28;20268;-58
2023/07/20 03:46:06;;;;;;;4.57;1.43;;;;;;;20.84;100.00;98502.22;4989747;28;20201;-58
2023/07/20 03:48:34;;;;;;;1.93;1.60;;;;;;;20.83;100.00;98505.81;4989409;28;20749;-58
2023/07/20 03:51:02;;;;;;;3.03;1.77;;;;;;;20.93;100.00;98498.47;4989436;28;20206;-58
2023/07/20 03:53:29;;;;;;;3.77;1.93;;;;;;;20.85;100.00;98503.81;4989481;28;20690;-58
2023/07/20 03:55:56;;;;;;;2.13;1.70;;;;;;;20.82;100.00;98514.59;4989391;28;20208;-57
2023/07/20 03:58:23;;;;;;;3.50;1.63;;;;;;;20.75;100.00;98513.75;4989630;28;20202;-58
2023/07/20 04:00:51;;;;;;;2.73;1.87;;;;;;;20.73;100.00;98505.34;4988811;28;20673;-58
2023/07/20 04:03:18;;;;;;;2.40;1.80;;;;;;;20.66;100.00;98517.50;4989379;28;20220;-57
2023/07/20 04:05:46;;;;;;;3.43;1.87;;;;;;;20.69;100.00;98535.31;4988610;28;20348;-58
2023/07/20 04:08:14;;;;;;;3.67;1.93;;;;;;;20.67;100.00;98542.47;4988045;28;20212;-57
2023/07/20 04:10:44;;;;;;;4.90;1.90;;;;;;;20.67;100.00;98553.66;4989105;28;20724;-58
2023/07/20 04:13:11;;;;;;;2.53;1.80;;;;;;;20.68;100.00;98549.28;4988983;28;20198;-57
2023/07/20 04:15:38;;;;;;;3.57;2.37;;;;;;;20.67;100.00;98552.88;4988948;28;20691;-58
2023/07/20 04:18:05;;;;;;;5.67;2.20;;;;;;;20.60;100.00;98562.44;4988741;28;20225;-57
2023/07/20 04:20:32;;;;;;;3.20;1.87;;;;;;;20.56;100.00;98565.38;4988746;28;20247;-58
2023/07/20 04:22:59;;;;;;;3.20;2.00;;;;;;;20.61;100.00;98574.41;4988878;28;20202;-58
2023/07/20 04:25:27;;;;;;;2.77;1.80;;;;;;;20.61;100.00;98569.22;4989055;28;20314;-58
2023/07/20 04:27:55;;;;;;;2.50;2.10;;;;;;;20.58;100.00;98566.00;4988863;28;20209;-57
2023/07/20 04:30:22;;;;;;;4.27;2.23;;;;;;;20.56;100.00;98573.16;4988925;28;20211;-57
2023/07/20 04:32:49;;;;;;;3.80;2.20;;;;;;;20.64;100.00;98585.22;4988928;28;20259;-57
2023/07/20 04:35:46;;;;;;;5.27;2.30;;;;;;;20.65;100.00;98609.41;4988575;28;20211;-58
2023/07/20 04:38:13;;;;;;;5.63;2.27;;;;;;;20.74;100.00;98616.06;4988543;28;20228;-58
2023/07/20 04:40:41;;;;;;;3.33;2.20;;;;;;;20.82;100.00;98612.53;4988659;28;20236;-58
2023/07/20 04:43:08;;;;;;;4.60;2.40;;;;;;;20.93;100.00;98610.22;4988480;28;20204;-58
2023/07/20 04:45:35;;;;;;;8.03;2.43;;;;;;;21.02;100.00;98618.69;4988465;28;20209;-58
2023/07/20 04:48:02;;;;;;;3.87;2.53;;;;;;;21.19;100.00;98630.41;4988482;28;20551;-58
2023/07/20 04:50:29;;;;;;;4.03;2.47;;;;;;;21.33;100.00;98626.09;4988530;28;20739;-58
2023/07/20 04:52:56;;;;;;;3.73;2.20;;;;;;;21.53;100.00;98622.84;4988363;28;20199;-58
2023/07/20 04:55:22;;;;;;;2.87;2.23;;;;;;;21.70;100.00;98626.72;4988638;28;20230;-58
2023/07/20 04:57:51;;;;;;;7.10;2.37;;;;;;;21.72;100.00;98624.69;4988837;28;20207;-58
2023/07/20 05:00:19;;;;;;;4.93;2.20;;;;;;;21.84;100.00;98617.94;4988530;28;20234;-58
2023/07/20 05:02:47;;;;;;;5.20;3.07;;;;;;;22.00;100.00;98610.81;4988357;28;20204;-58
2023/07/20 05:05:14;;;;;;;6.97;3.17;;;;;;;22.13;100.00;98616.03;4988047;28;20294;-58
2023/07/20 05:07:41;;;;;;;3.90;2.37;;;;;;;22.22;100.00;98612.25;4988317;28;20214;-58
2023/07/20 05:10:08;;;;;;;4.30;2.53;;;;;;;22.37;100.00;98612.13;4988108;28;20199;-58
2023/07/20 05:12:35;;;;;;;5.28;2.50;;;;;;;22.56;100.00;98605.31;4988159;28;20197;-58
2023/07/20 05:15:04;;;;;;;4.97;2.43;;;;;;;22.69;100.00;98605.31;4988287;28;20201;-58
2023/07/20 05:17:31;;;;;;;6.60;2.88;;;;;;;22.85;100.00;98603.31;4988117;28;20227;-57
2023/07/20 05:19:58;;;;;;;5.68;2.63;;;;;;;22.93;100.00;98598.69;4987996;28;20205;-57
2023/07/20 05:22:25;;;;;;;3.30;2.42;;;;;;;23.09;100.00;98591.47;4988182;28;20201;-58
2023/07/20 05:24:52;;;;;;;3.55;2.40;;;;;;;23.14;100.00;98576.81;4989653;28;20201;-58
2023/07/20 05:27:19;;;;;;;5.45;3.13;;;;;;;23.30;100.00;98585.19;4992259;28;20206;-58
2023/07/20 05:29:46;;;;;;;2.90;2.22;;;;;;;23.40;100.00;98580.34;4992043;28;20201;-58
2023/07/20 05:32:14;;;;;;;6.82;2.95;;;;;;;23.50;100.00;98580.72;4991825;28;20694;-58
2023/07/20 05:34:41;;;;;;;4.40;2.60;;;;;;;23.64;100.00;98582.25;4991971;28;20223;-58
2023/07/20 05:37:08;;;;;;;4.22;2.30;;;;;;;23.77;100.00;98578.03;4991834;28;20213;-58
2023/07/20 05:39:35;;;;;;;7.18;2.55;;;;;;;23.78;100.00;98583.03;4991980;28;20205;-58
2023/07/20 05:42:02;;;;;;;4.03;2.45;;;;;;;23.84;100.00;98571.75;4991691;28;20268;-58
2023/07/20 05:44:29;;;;;;;3.75;2.83;;;;;;;23.71;100.00;98562.19;4991747;28;20679;-58
2023/07/20 05:46:56;;;;;;;3.55;2.58;;;;;;;23.86;100.00;98574.16;4991737;28;20212;-58
2023/07/20 05:49:24;;;;;;;7.18;2.88;;;;;;;24.01;100.00;98571.28;4991859;28;20198;-57
2023/07/20 05:51:51;;;;;;;6.78;3.17;;;;;;;24.04;100.00;98569.03;4991734;28;20201;-58
2023/07/20 05:54:19;;;;;;;3.65;2.63;;;;;;;24.11;100.00;98580.22;4992260;28;20578;-58
2023/07/20 05:56:46;;;;;;;5.32;2.75;;;;;;;24.27;100.00;98575.53;4991834;28;20193;-59
2023/07/20 05:59:13;;;;;;;4.68;2.90;;;;;;;24.41;100.00;98571.81;4991731;28;20206;-58
2023/07/20 06:01:40;;;;;;;5.88;2.70;;;;;;;24.57;100.00;98570.50;4991260;28;20719;-59
2023/07/20 06:04:07;;;;;;;3.17;2.55;;;;;;;24.61;100.00;98572.47;4991109;28;20224;-58
2023/07/20 06:06:35;;;;;;;3.58;2.78;;;;;;;24.82;100.00;98588.78;4991313;28;20212;-59
2023/07/20 06:09:04;;;;;;;3.72;2.60;;;;;;;25.00;100.00;98583.56;4991469;28;20197;-59
2023/07/20 06:11:31;;;;;;;3.45;2.75;;;;;;;25.00;100.00;98586.19;4991565;28;20206;-59
2023/07/20 06:13:58;;;;;;;6.40;2.70;;;;;;;25.00;100.00;98585.41;4991613;28;20201;-58
2023/07/20 06:16:24;;;;;;;3.70;2.50;;;;;;;25.19;100.00;98591.47;4991248;28;20198;-58
2023/07/20 06:18:51;;;;;;;4.07;2.60;;;;;;;25.35;100.00;98582.25;4991630;28;20414;-59
2023/07/20 06:21:18;;;;;;;5.60;2.72;;;;;;;25.39;100.00;98584.19;4991289;28;20242;-59
2023/07/20 06:23:47;;;;;;;2.95;2.58;;;;;;;25.65;100.00;98592.75;4991238;28;20213;-59
2023/07/20 06:26:13;;;;;;;4.97;3.10;;;;;;;25.79;100.00;98583.72;4991056;28;20201;-59
2023/07/20 06:28:40;;;;;;;5.38;2.72;;;;;;;25.89;100.00;98578.78;4991206;28;20216;-59
2023/07/20 06:31:07;;;;;;;4.25;2.67;;;;;;;26.10;100.00;98584.53;4990758;28;20205;-59
2023/07/20 06:33:36;;;;;;;3.63;2.97;;;;;;;26.24;100.00;98596.44;4991133;28;20202;-59
2023/07/20 06:36:03;;;;;;;3.97;2.78;;;;;;;26.45;100.00;98610.03;4989547;28;20205;-58
2023/07/20 06:38:30;;;;;;;4.63;2.95;;;;;;;26.66;100.00;98608.72;4991120;28;20694;-59
2023/07/20 06:40:58;;;;;;;6.18;2.85;;;;;;;26.90;100.00;98618.19;4990624;28;20233;-59
2023/07/20 06:43:25;;;;;;;3.38;2.53;;;;;;;27.06;97.24;98614.09;4990717;28;20227;-59
2023/07/20 06:45:55;;;;;;;3.80;3.00;;;;;;;27.12;95.87;98613.16;4990759;28;20212;-59
2023/07/20 06:48:22;;;;;;;5.10;2.85;;;;;;;27.24;97.45;98619.22;4990578;28;20218;-59
2023/07/20 06:50:49;;;;;;;3.97;2.70;;;;;;;27.46;100.00;98618.59;4991100;28;20217;-59
2023/07/20 06:53:17;;;;;;;3.25;2.70;;;;;;;27.59;95.93;98621.00;4990537;28;20205;-59
2023/07/20 06:55:44;;;;;;;3.28;2.47;;;;;;;27.83;96.41;98618.31;4990552;28;20701;-59
2023/07/20 06:58:12;;;;;;;4.82;2.80;;;;;;;28.10;98.18;98623.78;4990213;28;20202;-59
2023/07/20 07:00:39;;;;;;;4.30;2.92;;;;;;;28.01;88.89;98626.00;4990390;28;20715;-59
2023/07/20 07:03:07;;;;;;;4.18;2.90;;;;;;;28.10;91.70;98635.13;4990322;28;20209;-59
2023/07/20 07:05:37;;;;;;;6.05;2.72;;;;;;;28.20;90.04;98635.28;4990133;28;20217;-59
2023/07/20 07:08:05;;;;;;;4.03;2.70;;;;;;;28.50;93.01;98644.75;4990377;28;20287;-59
2023/07/20 07:10:32;;;;;;;6.85;3.00;;;;;;;28.50;87.68;98644.75;4990702;28;20210;-58
2023/07/20 07:12:59;;;;;;;3.55;2.78;;;;;;;28.63;89.82;98652.34;4990168;28;20204;-59
2023/07/20 07:15:27;;;;;;;5.60;2.60;;;;;;;28.65;87.82;98655.53;4990249;28;20217;-58
2023/07/20 07:17:54;;;;;;;3.25;2.53;;;;;;;28.87;86.30;98660.06;4989807;28;20296;-60
2023/07/20 07:20:21;;;;;;;50.10;27.42;;;;;;;29.00;84.81;98662.38;4990014;28;20533;-60
2023/07/20 07:22:48;;;;;;;4.80;3.17;;;;;;;29.12;82.19;98667.59;4990215;28;20205;-60
2023/07/20 07:25:15;;;;;;;5.78;3.28;;;;;;;29.19;85.60;98675.31;4989963;28;20592;-59
2023/07/20 07:27:42;;;;;;;4.95;3.10;;;;;;;29.32;84.18;98678.41;4989866;28;20206;-60
2023/07/20 07:30:09;;;;;;;8.38;4.55;;;;;;;29.41;84.69;98677.94;4990008;28;20202;-59
2023/07/20 07:32:38;;;;;;;7.20;5.30;;;;;;;29.58;90.96;98681.34;4989564;28;20316;-59
2023/07/20 07:35:05;;;;;;;67.20;37.38;;;;;;;29.75;85.51;98686.59;4989756;28;20214;-60
2023/07/20 07:37:32;;;;;;;7.03;3.72;;;;;;;29.91;81.75;98677.81;4988442;28;20198;-60
2023/07/20 07:39:59;;;;;;;3.95;2.88;;;;;;;30.05;77.63;98680.06;4989692;28;20209;-61
2023/07/20 07:42:26;;;;;;;4.15;2.80;;;;;;;30.17;77.23;98667.53;4989215;28;20252;-60
2023/07/20 07:44:53;;;;;;;5.97;3.13;;;;;;;30.27;80.69;98672.16;4989772;28;20590;-60
2023/07/20 07:47:19;;;;;;;3.92;2.78;;;;;;;30.39;77.44;98670.94;4989328;28;20205;-61
2023/07/20 07:49:48;;;;;;;4.50;2.97;;;;;;;30.57;84.23;98669.75;4989519;28;20605;-60
2023/07/20 07:52:15;;;;;;;4.82;2.55;;;;;;;30.58;75.08;98667.94;4989697;28;20201;-60
2023/07/20 07:54:41;;;;;;;4.25;2.70;;;;;;;30.47;75.04;98676.81;4989753;28;20198;-59
2023/07/20 07:57:08;;;;;;;55.42;31.85;;;;;;;30.66;78.04;98670.09;4989174;28;20201;-60
2023/07/20 07:59:36;;;;;;;10.10;6.00;;;;;;;30.98;77.63;98687.78;4989363;28;20206;-62
2023/07/20 08:02:05;;;;;;;7.15;4.80;;;;;;;31.21;75.83;98697.97;4989507;28;20233;-59
2023/07/20 08:04:31;;;;;;;3.63;2.60;;;;;;;31.46;74.38;98707.91;4989197;28;20320;-60
2023/07/20 08:07:00;;;;;;;4.50;2.80;;;;;;;31.57;76.27;98706.13;4989164;28;20205;-61
2023/07/20 08:09:27;;;;;;;4.25;2.58;;;;;;;31.65;70.86;98713.56;4989319;28;20670;-60
2023/07/20 08:11:54;;;;;;;6.93;3.15;;;;;;;31.58;73.72;98718.28;4989398;28;20286;-59
2023/07/20 08:14:21;;;;;;;4.03;2.70;;;;;;;31.74;75.41;98722.59;4989315;28;20284;-61
2023/07/20 08:16:48;;;;;;;4.50;2.83;;;;;;;31.87;68.39;98731.09;4989056;28;20202;-61
2023/07/20 08:19:15;;;;;;;3.67;2.63;;;;;;;31.88;64.91;98732.69;4988847;28;20296;-62
2023/07/20 08:21:42;;;;;;;6.05;2.50;;;;;;;31.68;62.47;98742.13;4988796;28;20233;-60
2023/07/20 08:24:10;;;;;;;3.88;2.78;;;;;;;31.72;68.83;98748.47;4988833;28;20233;-60
2023/07/20 08:26:37;;;;;;;3.83;2.78;;;;;;;31.76;67.39;98759.34;4988933;28;20212;-60
2023/07/20 08:29:04;;;;;;;3.78;2.63;;;;;;;31.47;61.98;98753.63;4988614;28;20201;-61
2023/07/20 08:31:30;;;;;;;3.13;2.20;;;;;;;31.42;61.25;98761.53;4988769;28;20333;-60
2023/07/20 08:33:57;;;;;;;2.72;2.28;;;;;;;31.68;62.94;98760.63;4988769;28;20701;-61
2023/07/20 08:36:24;;;;;;;6.55;2.22;;;;;;;31.69;66.82;98746.34;4988729;28;20201;-61
2023/07/20 08:38:52;;;;;;;3.20;2.30;;;;;;;31.65;64.24;98753.22;4988689;28;20217;-61
2023/07/20 08:41:20;;;;;;;2.50;2.03;;;;;;;31.74;65.49;98751.69;4988720;28;20237;-61
2023/07/20 08:43:47;;;;;;;3.35;2.13;;;;;;;31.94;70.25;98744.88;4988664;28;20206;-61
2023/07/20 08:46:15;;;;;;;4.70;2.30;;;;;;;32.11;64.64;98732.25;4988867;28;20210;-61
2023/07/20 08:48:44;;;;;;;2.25;2.00;;;;;;;32.24;64.75;98728.34;4988377;28;20201;-60
2023/07/20 08:51:12;;;;;;;5.38;2.50;;;;;;;32.26;64.74;98718.28;4988448;28;20751;-61
2023/07/20 08:53:39;;;;;;;2.20;2.00;;;;;;;32.28;61.63;98723.31;4988403;28;20260;-61
2023/07/20 08:56:10;;;;;;;5.53;2.35;;;;;;;32.16;62.19;98710.31;4988339;28;20212;-60
2023/07/20 08:58:40;;;;;;;3.60;2.15;;;;;;;32.08;60.34;98719.56;4987843;28;20212;-60
2023/07/20 09:01:07;;;;;;;2.92;2.13;;;;;;;32.15;65.84;98706.88;4988178;28;20197;-60
2023/07/20 09:03:35;;;;;;;3.75;1.92;;;;;;;32.30;58.37;98705.34;4988381;28;20236;-60
2023/07/20 09:06:01;;;;;;;2.65;1.80;;;;;;;32.34;61.03;98698.44;4988404;28;20229;-60
2023/07/20 09:08:28;;;;;;;3.17;1.42;;;;;;;32.58;56.27;98691.63;4988235;28;20213;-60
2023/07/20 09:10:55;;;;;;;5.82;1.48;;;;;;;32.52;53.92;98691.88;4988315;28;20198;-60
2023/07/20 09:13:22;;;;;;;1.77;1.63;;;;;;;32.80;58.03;98695.84;4988293;28;20723;-60
2023/07/20 09:15:54;;;;;;;1.70;1.45;;;;;;;32.71;55.37;98679.72;4988811;28;20201;-60
2023/07/20 09:18:26;;;;;;;2.25;1.35;;;;;;;32.37;53.99;98671.47;4988299;28;20201;-60
2023/07/20 09:24:15;;;;;;;2.67;1.75;;;;;;;32.88;56.92;98645.00;4988416;28;20229;-60
2023/07/20 09:26:43;;;;;;;1.75;1.55;;;;;;;33.04;54.23;98640.50;4987931;28;20232;-60
2023/07/20 09:29:11;;;;;;;2.85;1.75;;;;;;;33.08;52.08;98639.69;4987854;28;20217;-60
2023/07/20 09:31:39;;;;;;;2.75;1.80;;;;;;;33.11;50.62;98643.66;4987922;28;20241;-60
2023/07/20 09:34:06;;;;;;;1.90;1.40;;;;;;;32.97;53.69;98637.31;4988010;28;20212;-60
2023/07/20 09:36:36;;;;;;;2.65;1.77;;;;;;;32.75;49.97;98650.84;4988082;28;20206;-60
2023/07/20 09:39:04;;;;;;;3.47;1.67;;;;;;;32.71;51.86;98649.78;4988041;28;20209;-60
2023/07/20 09:41:31;;;;;;;3.47;1.80;;;;;;;32.66;53.97;98651.38;4988378;28;20292;-60
2023/07/20 09:43:58;;;;;;;3.58;1.55;;;;;;;32.87;55.10;98654.00;4987894;28;20211;-60
2023/07/20 09:46:25;;;;;;;2.58;1.52;;;;;;;32.81;49.98;98657.72;4988428;28;20201;-60
2023/07/20 09:48:56;;;;;;;3.03;1.90;;;;;;;32.89;52.67;98652.66;4987930;28;20233;-60
2023/07/20 09:51:24;;;;;;;2.00;1.60;;;;;;;33.23;54.35;98653.97;4988250;28;20755;-60
2023/07/20 09:53:54;;;;;;;2.78;1.70;;;;;;;33.59;55.16;98649.34;4988023;28;20205;-60
2023/07/20 09:56:23;;;;;;;2.38;1.70;;;;;;;33.44;49.97;98652.81;4988253;28;20260;-60
2023/07/20 09:58:50;;;;;;;2.10;1.90;;;;;;;33.56;51.07;98655.97;4988217;28;20254;-60
2023/07/20 10:01:21;;;;;;;3.88;2.00;;;;;;;33.78;53.32;98637.06;4987970;28;20217;-60
2023/07/20 10:03:50;;;;;;;4.28;2.10;;;;;;;33.43;52.89;98632.69;4987818;28;20204;-60
2023/07/20 10:06:25;;;;;;;4.20;1.90;;;;;;;33.55;52.07;98638.50;4988035;28;20401;-61
2023/07/20 10:08:56;;;;;;;2.15;1.92;;;;;;;33.41;50.41;98637.47;4987721;28;20197;-60
2023/07/20 10:11:28;;;;;;;3.10;2.05;;;;;;;33.28;50.52;98632.72;4989935;28;20209;-60
2023/07/20 10:13:58;;;;;;;3.80;1.77;;;;;;;33.42;52.51;98644.34;4991477;28;20564;-60
2023/07/20 10:16:29;;;;;;;3.22;2.00;;;;;;;32.96;50.24;98649.75;4991333;28;20263;-60
2023/07/20 10:19:04;;;;;;;3.08;1.80;;;;;;;32.89;55.51;98630.69;4991399;28;20212;-60
2023/07/20 10:21:35;;;;;;;3.00;1.80;;;;;;;33.08;52.20;98652.94;4991089;28;20208;-60
2023/07/20 10:24:03;;;;;;;2.30;1.88;;;;;;;33.00;51.59;98645.53;4991245;28;20578;-60
2023/07/20 10:26:31;;;;;;;4.35;2.13;;;;;;;33.11;52.61;98663.00;4991158;28;20201;-61
2023/07/20 10:28:59;;;;;;;1.85;1.65;;;;;;;32.59;52.70;98656.16;4991416;28;20201;-60
2023/07/20 10:31:28;;;;;;;4.07;2.10;;;;;;;32.58;53.74;98657.22;4990875;28;20633;-60
2023/07/20 10:33:57;;;;;;;3.25;1.80;;;;;;;32.54;55.71;98629.69;4991337;28;20324;-60
2023/07/20 10:36:27;;;;;;;3.20;1.50;;;;;;;32.30;50.81;98607.44;4991354;28;20197;-61
2023/07/20 10:38:56;;;;;;;2.63;1.80;;;;;;;32.29;54.92;98600.53;4991249;28;20209;-60
2023/07/20 10:41:29;;;;;;;4.72;1.58;;;;;;;32.03;56.67;98597.91;4990736;28;20209;-60
2023/07/20 10:44:00;;;;;;;2.78;1.63;;;;;;;31.66;62.35;98608.63;4990837;28;20597;-60
2023/07/20 10:46:46;;;;;;;2.30;1.90;;;;;;;31.73;69.05;98604.69;4990962;28;20271;-60
2023/07/20 10:49:15;;;;;;;2.90;1.90;;;;;;;31.54;69.24;98585.09;4990719;28;20243;-60
2023/07/20 10:51:43;;;;;;;1.88;1.60;;;;;;;31.42;63.75;98584.53;4990469;28;20201;-60
2023/07/20 10:54:36;;;;;;;2.10;1.70;;;;;;;31.40;67.54;98573.41;4990606;28;20737;-60
2023/07/20 10:57:25;;;;;;;1.70;1.60;;;;;;;31.42;64.13;98566.81;4990827;28;20567;-60
2023/07/20 10:59:52;;;;;;;2.20;1.83;;;;;;;31.68;69.72;98569.50;4984286;28;20553;-60
2023/07/20 11:02:19;;;;;;;3.60;1.60;;;;;;;31.70;59.95;98573.47;4990356;28;20236;-60
2023/07/20 11:04:48;;;;;;;3.08;1.92;;;;;;;31.62;55.35;98574.00;4990465;28;20595;-60
2023/07/20 11:07:36;;;;;;;2.03;1.70;;;;;;;31.73;63.27;98566.88;4990243;28;20214;-60
2023/07/20 11:10:16;;;;;;;2.40;1.65;;;;;;;31.53;55.28;98572.91;4990344;28;20202;-60
2023/07/20 11:13:02;;;;;;;3.13;1.77;;;;;;;31.27;54.71;98575.47;4990381;28;20213;-60
2023/07/20 11:15:46;;;;;;;1.63;1.50;;;;;;;31.26;56.86;98583.63;4990613;28;20212;-60
2023/07/20 11:18:13;;;;;;;1.90;1.60;;;;;;;31.13;57.02;98582.28;4989923;28;20275;-60
2023/07/20 11:20:40;;;;;;;3.65;1.90;;;;;;;30.80;56.31;98573.63;4988634;28;20205;-61
2023/07/20 11:23:07;;;;;;;3.55;1.60;;;;;;;30.84;55.21;98573.94;4987610;28;20225;-60
2023/07/20 11:25:39;;;;;;;2.15;1.52;;;;;;;30.71;54.58;98572.50;4990010;28;20206;-61
2023/07/20 11:28:10;;;;;;;2.35;1.77;;;;;;;30.51;55.39;98572.34;4990240;28;20232;-60
2023/07/20 11:30:37;;;;;;;2.25;1.45;;;;;;;30.52;56.86;98566.84;4990067;28;20260;-60
2023/07/20 11:33:05;;;;;;;1.88;1.50;;;;;;;30.41;58.95;98563.34;4989923;28;20198;-60
2023/07/20 11:35:36;;;;;;;1.50;1.38;;;;;;;30.39;59.26;98565.41;4989851;28;20667;-60
2023/07/20 11:38:03;;;;;;;4.03;1.60;;;;;;;30.34;60.27;98562.75;4989750;28;20205;-60
2023/07/20 11:40:30;;;;;;;1.50;1.40;;;;;;;30.26;58.50;98568.50;4989789;28;20208;-60
2023/07/20 11:42:58;;;;;;;2.78;1.60;;;;;;;30.19;58.81;98557.31;4989423;28;20244;-60
2023/07/20 11:45:27;;;;;;;2.50;1.60;;;;;;;30.17;57.10;98567.34;4989981;28;20198;-60